Time;durP1;ratioP1;P1;durP2;ratioP2;P2;SDS_P1;SDS_P2;PMS_P1;PMS_P2;Temp;Humidity;BMP_temperature;BMP_pressure;BME280_temperature;BME280_humidity;BME280_pressure;Samples;Min_cycle;Max_cycle;Signal;HPM_P1;HPM_P2
2022/12/29 00:01:55;;;;;;;;;8.60;8.60;;;;;;;;5238664;28;8952;-71
2022/12/29 00:04:26;;;;;;;;;8.60;8.60;;;;;;;;5208162;28;8813;-71
2022/12/29 00:06:57;;;;;;;;;3.50;3.50;;;;;;;;5224026;28;8790;-71
2022/12/29 00:09:28;;;;;;;;;8.20;8.20;;;;;;;;5225399;28;9046;-71
2022/12/29 00:12:00;;;;;;;;;5.60;5.20;;;;;;;;5225373;28;8924;-71
2022/12/29 00:17:20;;;;;;;;;6.00;6.00;;;;;;;;5226237;28;8794;-70
2022/12/29 00:37:07;;;;;;;;;5.80;5.80;;;;;;;;5225176;28;8810;-73
2022/12/29 00:45:36;;;;;;;;;12.40;11.60;;;;;;;;5223969;28;8908;-72
2022/12/29 00:48:08;;;;;;;;;8.40;8.40;;;;;;;;5207021;28;8800;-71
2022/12/29 00:50:39;;;;;;;;;11.20;9.20;;;;;;;;5224013;28;8785;-72
2022/12/29 00:53:29;;;;;;;;;9.40;9.00;;;;;;;;5224333;28;8813;-70
2022/12/29 00:56:00;;;;;;;;;9.80;9.20;;;;;;;;5224452;28;9567;-70
2022/12/29 00:58:31;;;;;;;;;4.40;4.40;;;;;;;;5207261;28;8919;-71
2022/12/29 01:01:06;;;;;;;;;9.00;9.00;;;;;;;;5243302;28;8839;-70
2022/12/29 01:03:37;;;;;;;;;5.60;5.60;;;;;;;;5227337;28;8802;-70
2022/12/29 01:06:27;;;;;;;;;9.00;9.00;;;;;;;;5228286;28;8802;-71
2022/12/29 01:12:07;;;;;;;;;12.80;12.60;;;;;;;;5223273;28;9719;-70
2022/12/29 01:14:39;;;;;;;;;4.00;4.00;;;;;;;;5190314;28;8846;-70
2022/12/29 01:17:10;;;;;;;;;6.00;6.00;;;;;;;;5190553;28;8780;-70
2022/12/29 01:19:41;;;;;;;;;10.00;10.00;;;;;;;;5173828;28;8777;-71
2022/12/29 01:22:12;;;;;;;;;11.60;11.60;;;;;;;;5174061;28;8829;-71
2022/12/29 01:24:43;;;;;;;;;10.60;8.20;;;;;;;;5190337;28;8793;-71
2022/12/29 01:27:17;;;;;;;;;9.00;9.00;;;;;;;;5206867;28;9351;-71
2022/12/29 01:29:48;;;;;;;;;8.20;8.20;;;;;;;;5206454;28;8800;-71
2022/12/29 01:32:19;;;;;;;;;12.40;12.40;;;;;;;;5189841;28;8789;-71
2022/12/29 01:35:10;;;;;;;;;12.20;12.20;;;;;;;;5190019;28;8761;-71
2022/12/29 01:37:41;;;;;;;;;11.60;11.60;;;;;;;;5173814;28;8797;-71
2022/12/29 01:40:12;;;;;;;;;11.00;10.60;;;;;;;;5173838;28;8800;-71
2022/12/29 01:42:43;;;;;;;;;1.00;1.00;;;;;;;;5206158;28;8812;-71
2022/12/29 01:45:16;;;;;;;;;11.40;10.80;;;;;;;;5173735;28;8799;-71
2022/12/29 01:47:52;;;;;;;;;13.80;12.60;;;;;;;;5173420;28;8912;-71
2022/12/29 01:50:23;;;;;;;;;11.60;10.80;;;;;;;;5189989;28;8773;-73
2022/12/29 01:52:58;;;;;;;;;4.00;4.00;;;;;;;;5190025;28;9492;-72
2022/12/29 01:55:31;;;;;;;;;16.80;16.80;;;;;;;;5205975;28;8787;-72
2022/12/29 01:58:04;;;;;;;;;10.80;10.80;;;;;;;;5206964;28;8789;-72
2022/12/29 02:00:37;;;;;;;;;5.60;5.60;;;;;;;;5189421;28;8915;-72
2022/12/29 02:03:08;;;;;;;;;6.40;6.40;;;;;;;;5156806;28;8816;-72
2022/12/29 02:05:45;;;;;;;;;9.60;9.60;;;;;;;;5189149;28;8846;-73
2022/12/29 02:08:17;;;;;;;;;6.20;6.20;;;;;;;;5189277;28;8797;-72
2022/12/29 02:10:48;;;;;;;;;7.00;7.00;;;;;;;;5189976;28;8785;-72
2022/12/29 02:13:20;;;;;;;;;4.60;4.60;;;;;;;;5226861;28;9610;-72
2022/12/29 02:16:17;;;;;;;;;7.00;6.60;;;;;;;;5226760;28;8896;-72
2022/12/29 02:19:07;;;;;;;;;14.20;14.20;;;;;;;;5228173;28;8786;-72
2022/12/29 02:21:56;;;;;;;;;7.60;7.60;;;;;;;;5243017;28;8778;-72
2022/12/29 02:24:30;;;;;;;;;7.00;7.00;;;;;;;;5227562;28;8904;-72
2022/12/29 02:27:01;;;;;;;;;9.20;7.40;;;;;;;;5209503;28;8919;-72
2022/12/29 02:29:40;;;;;;;;;9.00;8.20;;;;;;;;5225692;28;8794;-73
2022/12/29 02:32:19;;;;;;;;;14.80;13.80;;;;;;;;5209214;28;8789;-73
2022/12/29 02:34:50;;;;;;;;;10.00;10.00;;;;;;;;5192800;28;8785;-73
2022/12/29 02:37:30;;;;;;;;;6.75;6.75;;;;;;;;5209294;28;8797;-75
2022/12/29 02:40:07;;;;;;;;;6.00;6.00;;;;;;;;5209388;28;11131;-73
2022/12/29 02:42:46;;;;;;;;;11.60;10.40;;;;;;;;5193186;28;8836;-72
2022/12/29 02:45:25;;;;;;;;;11.20;10.80;;;;;;;;5225775;28;8817;-74
2022/12/29 02:48:25;;;;;;;;;7.00;7.00;;;;;;;;5225917;28;8896;-73
2022/12/29 02:51:05;;;;;;;;;6.00;6.00;;;;;;;;5192373;28;8802;-73
2022/12/29 02:56:45;;;;;;;;;6.40;6.40;;;;;;;;5226651;28;8773;-72
2022/12/29 02:59:17;;;;;;;;;12.00;12.00;;;;;;;;5209353;28;8809;-73
2022/12/29 03:02:17;;;;;;;;;6.00;6.00;;;;;;;;5208760;28;9568;-72
2022/12/29 03:04:52;;;;;;;;;12.20;11.80;;;;;;;;5217869;28;9655;-71
2022/12/29 03:07:28;;;;;;;;;19.60;19.60;;;;;;;;5208425;28;9461;-71
2022/12/29 03:10:05;;;;;;;;;10.40;9.60;;;;;;;;5242143;28;8793;-72
2022/12/29 03:18:39;;;;;;;;;18.80;18.80;;;;;;;;5224614;28;8774;-73
2022/12/29 03:24:37;;;;;;;;;22.40;22.40;;;;;;;;5208896;28;8797;-73
2022/12/29 03:27:10;;;;;;;;;25.00;23.20;;;;;;;;5226318;28;9512;-73
2022/12/29 03:29:53;;;;;;;;;16.80;15.80;;;;;;;;5224759;28;8794;-72
2022/12/29 03:32:27;;;;;;;;;12.80;12.80;;;;;;;;5227697;28;8798;-71
2022/12/29 03:34:59;;;;;;;;;16.40;15.40;;;;;;;;5211932;28;8884;-71
2022/12/29 03:37:36;;;;;;;;;10.20;9.20;;;;;;;;5207897;28;8812;-72
2022/12/29 03:40:07;;;;;;;;;17.20;17.20;;;;;;;;5225279;28;8805;-70
2022/12/29 03:42:39;;;;;;;;;17.40;14.00;;;;;;;;5225674;28;8833;-71
2022/12/29 03:45:10;;;;;;;;;15.00;13.80;;;;;;;;5208751;28;8793;-71
2022/12/29 03:47:42;;;;;;;;;14.80;14.80;;;;;;;;5192587;28;8960;-71
2022/12/29 03:50:13;;;;;;;;;20.60;20.60;;;;;;;;5191738;28;8908;-70
2022/12/29 03:52:46;;;;;;;;;17.60;17.20;;;;;;;;5207933;28;8801;-72
2022/12/29 03:55:18;;;;;;;;;24.60;22.60;;;;;;;;5224800;28;9006;-73
2022/12/29 03:58:07;;;;;;;;;15.20;14.60;;;;;;;;5224714;28;8801;-72
2022/12/29 04:00:59;;;;;;;;;12.20;12.00;;;;;;;;5209799;28;8924;-69
2022/12/29 04:03:30;;;;;;;;;6.60;6.60;;;;;;;;5191471;28;8860;-72
2022/12/29 04:06:01;;;;;;;;;41.00;38.00;;;;;;;;5224520;28;8789;-72
2022/12/29 04:08:38;;;;;;;;;10.40;10.40;;;;;;;;5208777;28;8796;-71
2022/12/29 04:11:10;;;;;;;;;17.80;15.60;;;;;;;;5190875;28;8848;-72
2022/12/29 04:13:41;;;;;;;;;6.80;6.40;;;;;;;;5208233;28;8793;-71
2022/12/29 04:16:15;;;;;;;;;8.20;8.20;;;;;;;;5207622;28;8863;-70
2022/12/29 04:18:46;;;;;;;;;10.40;10.40;;;;;;;;5240841;28;8888;-72
2022/12/29 04:21:17;;;;;;;;;29.20;23.40;;;;;;;;5207303;28;8880;-70
2022/12/29 04:24:07;;;;;;;;;32.20;31.00;;;;;;;;5225527;28;8877;-72
2022/12/29 04:26:43;;;;;;;;;115.75;85.75;;;;;;;;5224150;28;8754;-69
2022/12/29 04:29:47;;;;;;;;;19.40;19.40;;;;;;;;5240879;28;10860;-72
2022/12/29 04:32:51;;;;;;;;;22.40;22.40;;;;;;;;5190787;28;8794;-73
2022/12/29 04:35:22;;;;;;;;;6.00;6.00;;;;;;;;5209383;28;8794;-73
2022/12/29 04:37:53;;;;;;;;;24.20;24.00;;;;;;;;5201902;28;8778;-70
2022/12/29 04:40:25;;;;;;;;;36.60;36.60;;;;;;;;5225447;28;8789;-71
2022/12/29 04:42:56;;;;;;;;;31.40;30.20;;;;;;;;5241420;28;8825;-71
2022/12/29 04:45:28;;;;;;;;;16.60;15.20;;;;;;;;5218963;28;8770;-72
2022/12/29 04:48:08;;;;;;;;;16.00;16.00;;;;;;;;5196290;28;8785;-71
2022/12/29 04:50:49;;;;;;;;;22.20;19.20;;;;;;;;5227846;28;8951;-72
2022/12/29 04:53:27;;;;;;;;;20.80;18.80;;;;;;;;5211223;28;9525;-73
2022/12/29 04:55:58;;;;;;;;;8.20;8.20;;;;;;;;5211088;28;8800;-73
2022/12/29 04:58:29;;;;;;;;;18.00;14.60;;;;;;;;5211146;28;8804;-73
2022/12/29 05:01:02;;;;;;;;;12.20;11.20;;;;;;;;5243979;28;8908;-74
2022/12/29 05:03:35;;;;;;;;;8.00;8.00;;;;;;;;5210746;28;8829;-75
2022/12/29 05:06:06;;;;;;;;;10.20;10.20;;;;;;;;5211758;28;8798;-74
2022/12/29 05:08:37;;;;;;;;;10.00;9.60;;;;;;;;5227528;28;9517;-73
2022/12/29 05:11:09;;;;;;;;;14.80;14.00;;;;;;;;5194124;28;8841;-70
2022/12/29 05:13:44;;;;;;;;;15.20;15.20;;;;;;;;5210789;28;8790;-73
2022/12/29 05:16:16;;;;;;;;;16.00;14.60;;;;;;;;5227529;28;8919;-73
2022/12/29 05:18:47;;;;;;;;;21.60;21.40;;;;;;;;5211237;28;8944;-73
2022/12/29 05:21:18;;;;;;;;;11.00;10.00;;;;;;;;5243933;28;8790;-73
2022/12/29 05:24:08;;;;;;;;;13.60;13.60;;;;;;;;5241468;28;8844;-72
2022/12/29 05:31:03;;;;;;;;;8.40;8.20;;;;;;;;5227968;28;8733;-72
2022/12/29 05:33:35;;;;;;;;;14.40;14.40;;;;;;;;5226986;28;8794;-73
2022/12/29 05:36:24;;;;;;;;;4.00;4.00;;;;;;;;5212987;28;8816;-73
2022/12/29 05:43:26;;;;;;;;;14.60;14.60;;;;;;;;5227752;28;8797;-74
2022/12/29 05:46:20;;;;;;;;;18.60;15.80;;;;;;;;5198978;28;8781;-73
2022/12/29 05:49:02;;;;;;;;;58.20;48.40;;;;;;;;5228176;28;8936;-71
2022/12/29 06:00:39;;;;;;;;;9.20;9.20;;;;;;;;5227567;28;8706;-71
2022/12/29 06:03:11;;;;;;;;;25.20;24.60;;;;;;;;5242485;28;8813;-70
2022/12/29 06:06:01;;;;;;;;;10.80;10.20;;;;;;;;5212456;28;8786;-70
2022/12/29 06:08:33;;;;;;;;;20.60;19.80;;;;;;;;5209807;28;8778;-70
2022/12/29 06:11:05;;;;;;;;;13.00;13.00;;;;;;;;5209368;28;8874;-72
2022/12/29 06:13:36;;;;;;;;;18.40;18.40;;;;;;;;5228064;28;8786;-72
2022/12/29 06:20:31;;;;;;;;;12.00;12.00;;;;;;;;5227112;28;8702;-71
2022/12/29 06:23:20;;;;;;;;;12.40;12.40;;;;;;;;5226863;28;8844;-71
2022/12/29 06:25:51;;;;;;;;;10.80;10.40;;;;;;;;5227459;28;8769;-71
2022/12/29 06:28:22;;;;;;;;;10.80;9.80;;;;;;;;5227004;28;8847;-71
2022/12/29 06:30:53;;;;;;;;;9.40;9.40;;;;;;;;5225961;28;8786;-69
2022/12/29 06:33:24;;;;;;;;;4.20;4.20;;;;;;;;5209395;28;8797;-69
2022/12/29 06:35:55;;;;;;;;;9.00;8.00;;;;;;;;5225925;28;8912;-71
2022/12/29 06:38:26;;;;;;;;;46.25;42.50;;;;;;;;5209900;28;8778;-71
2022/12/29 06:40:57;;;;;;;;;12.20;12.00;;;;;;;;5209340;28;10614;-71
2022/12/29 06:43:30;;;;;;;;;4.50;4.00;;;;;;;;5227091;28;8821;-71
2022/12/29 06:46:12;;;;;;;;;10.00;10.00;;;;;;;;5227054;28;11469;-69
2022/12/29 06:48:43;;;;;;;;;21.00;21.00;;;;;;;;5212115;28;8794;-69
2022/12/29 06:51:32;;;;;;;;;33.00;28.40;;;;;;;;5212342;28;8836;-70
2022/12/29 06:54:04;;;;;;;;;47.00;41.75;;;;;;;;5226706;28;8781;-70
2022/12/29 06:56:35;;;;;;;;;16.80;16.80;;;;;;;;5241977;28;11504;-70
2022/12/29 06:59:06;;;;;;;;;7.80;7.80;;;;;;;;5241486;28;8790;-70
2022/12/29 07:01:37;;;;;;;;;76.25;62.50;;;;;;;;5226329;28;8912;-70
2022/12/29 07:04:08;;;;;;;;;15.40;15.40;;;;;;;;5225086;28;8806;-70
2022/12/29 07:06:40;;;;;;;;;20.25;20.25;;;;;;;;5226604;28;8786;-71
2022/12/29 07:09:11;;;;;;;;;13.80;12.40;;;;;;;;5208481;28;11633;-71
2022/12/29 07:11:42;;;;;;;;;11.60;10.00;;;;;;;;5242307;28;8955;-71
2022/12/29 07:14:13;;;;;;;;;9.40;8.60;;;;;;;;5258100;28;8790;-71
2022/12/29 07:16:44;;;;;;;;;7.00;7.00;;;;;;;;5225433;28;8851;-71
2022/12/29 07:19:15;;;;;;;;;12.40;12.40;;;;;;;;5208039;28;8785;-70
2022/12/29 07:21:46;;;;;;;;;12.20;12.20;;;;;;;;5241462;28;8839;-70
2022/12/29 07:24:18;;;;;;;;;8.60;8.60;;;;;;;;5242018;28;9528;-71
2022/12/29 07:26:49;;;;;;;;;26.20;26.20;;;;;;;;5208415;28;8808;-70
2022/12/29 07:29:39;;;;;;;;;4.00;3.20;;;;;;;;5225097;28;9528;-72
2022/12/29 07:32:10;;;;;;;;;17.20;17.20;;;;;;;;5241991;28;8789;-71
2022/12/29 07:34:47;;;;;;;;;13.00;13.00;;;;;;;;5225114;28;8789;-71
2022/12/29 07:37:18;;;;;;;;;15.80;15.40;;;;;;;;5224958;28;8825;-72
2022/12/29 07:39:49;;;;;;;;;12.80;12.80;;;;;;;;5224697;28;8805;-71
2022/12/29 07:46:50;;;;;;;;;32.20;31.60;;;;;;;;5226243;28;8710;-71
2022/12/29 07:49:21;;;;;;;;;12.00;11.80;;;;;;;;5224381;28;8782;-72
2022/12/29 07:51:53;;;;;;;;;16.80;16.80;;;;;;;;5207393;28;8805;-71
2022/12/29 07:54:42;;;;;;;;;15.60;15.60;;;;;;;;5253953;28;8923;-71
2022/12/29 07:57:14;;;;;;;;;13.20;13.20;;;;;;;;5209268;28;8878;-71
2022/12/29 07:59:54;;;;;;;;;28.00;27.80;;;;;;;;5224155;28;8789;-71
2022/12/29 08:02:29;;;;;;;;;20.00;20.00;;;;;;;;5259789;28;9532;-72
2022/12/29 08:05:20;;;;;;;;;10.00;9.20;;;;;;;;5225466;28;9476;-72
2022/12/29 08:16:37;;;;;;;;;8.60;8.60;;;;;;;;5229089;28;8729;-71
2022/12/29 08:19:10;;;;;;;;;12.20;11.60;;;;;;;;5228424;28;8798;-70
2022/12/29 08:21:41;;;;;;;;;17.60;15.00;;;;;;;;5228769;28;8871;-70
2022/12/29 08:24:12;;;;;;;;;23.00;22.00;;;;;;;;5211537;28;8794;-71
2022/12/29 08:26:43;;;;;;;;;16.00;16.00;;;;;;;;5244626;28;8855;-70
2022/12/29 08:29:14;;;;;;;;;11.60;11.60;;;;;;;;5244885;28;8848;-71
2022/12/29 08:31:45;;;;;;;;;21.50;20.00;;;;;;;;5229301;28;8813;-72
2022/12/29 08:34:16;;;;;;;;;8.60;8.60;;;;;;;;5211823;28;8777;-71
2022/12/29 08:36:47;;;;;;;;;23.75;22.75;;;;;;;;5228238;28;8840;-69
2022/12/29 08:39:18;;;;;;;;;24.00;22.20;;;;;;;;5228099;28;8785;-71
2022/12/29 08:41:49;;;;;;;;;6.50;6.50;;;;;;;;5229434;28;8785;-68
2022/12/29 08:44:20;;;;;;;;;11.00;9.60;;;;;;;;5229462;28;8803;-70
2022/12/29 08:46:51;;;;;;;;;11.60;11.60;;;;;;;;5227725;28;8797;-70
2022/12/29 08:49:22;;;;;;;;;12.50;11.50;;;;;;;;5228567;28;8808;-72
2022/12/29 08:51:53;;;;;;;;;17.00;15.75;;;;;;;;5229042;28;11437;-72
2022/12/29 08:54:24;;;;;;;;;18.00;18.00;;;;;;;;5227437;28;11493;-72
2022/12/29 08:56:55;;;;;;;;;19.40;18.40;;;;;;;;5227445;28;8781;-78
2022/12/29 08:59:30;;;;;;;;;15.80;15.20;;;;;;;;5227786;28;9497;-73
2022/12/29 09:02:01;;;;;;;;;22.00;19.00;;;;;;;;5227566;28;8828;-73
2022/12/29 09:04:32;;;;;;;;;14.80;14.80;;;;;;;;5227125;28;8793;-73
2022/12/29 09:07:04;;;;;;;;;22.00;22.00;;;;;;;;5227781;28;8785;-76
2022/12/29 09:09:35;;;;;;;;;28.80;28.40;;;;;;;;5211690;28;9449;-75
2022/12/29 09:12:25;;;;;;;;;19.40;19.40;;;;;;;;5254966;28;8825;-71
2022/12/29 09:14:55;;;;;;;;;27.00;27.00;;;;;;;;5227508;28;8786;-72
2022/12/29 09:17:45;;;;;;;;;16.80;16.80;;;;;;;;5211960;28;8780;-71
2022/12/29 09:20:17;;;;;;;;;6.40;6.40;;;;;;;;5227054;28;8846;-71
2022/12/29 09:22:49;;;;;;;;;7.40;7.40;;;;;;;;5225659;28;8853;-75
2022/12/29 09:25:21;;;;;;;;;26.20;25.80;;;;;;;;5227009;28;8781;-72
2022/12/29 09:27:53;;;;;;;;;16.80;16.80;;;;;;;;5225947;28;8786;-75
2022/12/29 09:34:47;;;;;;;;;31.40;31.40;;;;;;;;5226742;28;8706;-74
2022/12/29 09:37:18;;;;;;;;;14.20;12.60;;;;;;;;5225700;28;8801;-74
2022/12/29 09:39:49;;;;;;;;;13.75;13.75;;;;;;;;5225575;28;8790;-74
2022/12/29 09:42:43;;;;;;;;;19.00;19.00;;;;;;;;5227137;28;10643;-74
2022/12/29 09:45:40;;;;;;;;;15.00;13.00;;;;;;;;5208665;28;8786;-76
2022/12/29 09:52:29;;;;;;;;;20.80;17.60;;;;;;;;5227331;28;8798;-73
2022/12/29 09:55:02;;;;;;;;;34.80;31.60;;;;;;;;5208522;28;8798;-73
2022/12/29 09:57:45;;;;;;;;;19.60;19.60;;;;;;;;5242146;28;8786;-72
2022/12/29 10:00:18;;;;;;;;;16.20;16.20;;;;;;;;5209229;28;8754;-73
2022/12/29 10:02:52;;;;;;;;;17.00;17.00;;;;;;;;5225394;28;9526;-72
2022/12/29 10:05:29;;;;;;;;;9.40;9.40;;;;;;;;5234084;28;8782;-74
2022/12/29 10:08:00;;;;;;;;;10.40;10.40;;;;;;;;5214303;28;8762;-73
2022/12/29 10:10:37;;;;;;;;;6.75;6.75;;;;;;;;5225299;28;8794;-73
2022/12/29 10:13:15;;;;;;;;;10.50;10.50;;;;;;;;5184369;28;1676910;-74
2022/12/29 10:15:46;;;;;;;;;12.40;12.40;;;;;;;;5227146;28;8778;-75
2022/12/29 10:18:32;;;;;;;;;11.00;11.00;;;;;;;;5226761;28;8776;-74
2022/12/29 10:21:22;;;;;;;;;31.60;30.00;;;;;;;;5209147;28;10650;-74
2022/12/29 10:23:55;;;;;;;;;39.60;34.60;;;;;;;;5225184;28;8883;-73
2022/12/29 10:26:31;;;;;;;;;20.60;19.20;;;;;;;;5259544;28;8789;-71
2022/12/29 10:29:04;;;;;;;;;21.00;21.00;;;;;;;;5226056;28;8858;-71
2022/12/29 10:31:44;;;;;;;;;10.80;10.40;;;;;;;;5226600;28;8805;-72
2022/12/29 10:34:19;;;;;;;;;11.20;11.20;;;;;;;;5225211;28;8777;-71
2022/12/29 10:36:57;;;;;;;;;12.60;12.60;;;;;;;;5243116;28;9403;-72
2022/12/29 10:39:35;;;;;;;;;12.20;12.20;;;;;;;;5226196;28;8766;-72
2022/12/29 10:42:26;;;;;;;;;9.80;9.80;;;;;;;;5259228;28;9531;-72
2022/12/29 10:44:58;;;;;;;;;10.00;10.00;;;;;;;;5209821;28;8789;-71
2022/12/29 10:47:32;;;;;;;;;12.20;12.20;;;;;;;;5226282;28;8793;-71
2022/12/29 10:50:04;;;;;;;;;11.00;9.20;;;;;;;;5226198;28;9342;-76
2022/12/29 10:52:41;;;;;;;;;13.40;12.40;;;;;;;;5243157;28;8817;-75
2022/12/29 10:59:49;;;;;;;;;13.80;13.80;;;;;;;;5237273;28;8746;-71
2022/12/29 11:02:26;;;;;;;;;4.00;4.00;;;;;;;;5234152;28;8814;-71
2022/12/29 11:09:27;;;;;;;;;1.00;1.00;;;;;;;;5226450;28;8706;-72
2022/12/29 11:12:27;;;;;;;;;13.60;13.60;;;;;;;;5209897;28;8817;-72
2022/12/29 11:15:11;;;;;;;;;15.20;15.20;;;;;;;;5215962;28;8814;-72
2022/12/29 11:17:47;;;;;;;;;32.20;30.20;;;;;;;;5225541;28;8782;-71
2022/12/29 11:24:45;;;;;;;;;17.20;16.80;;;;;;;;5225881;28;8786;-71
2022/12/29 11:27:22;;;;;;;;;10.00;10.00;;;;;;;;5224686;28;8871;-72
2022/12/29 11:29:53;;;;;;;;;14.40;12.80;;;;;;;;5225301;28;8790;-71
2022/12/29 11:32:26;;;;;;;;;13.40;13.40;;;;;;;;5224415;28;8821;-72
2022/12/29 11:34:58;;;;;;;;;15.20;15.20;;;;;;;;5257611;28;8819;-71
2022/12/29 11:37:31;;;;;;;;;12.20;12.20;;;;;;;;5224222;28;8825;-70
2022/12/29 11:40:08;;;;;;;;;11.60;11.60;;;;;;;;5240698;28;8809;-69
2022/12/29 11:47:02;;;;;;;;;12.60;11.80;;;;;;;;5225564;28;8742;-71
2022/12/29 11:49:33;;;;;;;;;15.00;15.00;;;;;;;;5241069;28;8782;-71
2022/12/29 11:52:04;;;;;;;;;18.40;17.40;;;;;;;;5225605;28;8955;-71
2022/12/29 11:54:37;;;;;;;;;19.40;19.20;;;;;;;;5208420;28;8774;-70
2022/12/29 11:57:18;;;;;;;;;12.20;12.20;;;;;;;;5207664;28;8770;-70
2022/12/29 11:59:55;;;;;;;;;17.20;17.20;;;;;;;;5241471;28;8774;-71
2022/12/29 12:02:29;;;;;;;;;12.20;12.20;;;;;;;;5226033;28;8798;-71
2022/12/29 12:05:22;;;;;;;;;43.60;40.60;;;;;;;;5224656;28;8840;-70
2022/12/29 12:08:17;;;;;;;;;12.20;12.20;;;;;;;;5224079;28;8766;-70
2022/12/29 12:11:10;;;;;;;;;17.60;17.60;;;;;;;;5208033;28;9497;-71
2022/12/29 12:14:02;;;;;;;;;29.20;27.00;;;;;;;;5225340;28;8874;-69
2022/12/29 12:16:52;;;;;;;;;34.80;33.60;;;;;;;;5221979;28;8810;-70
2022/12/29 12:19:32;;;;;;;;;21.00;19.80;;;;;;;;5225351;28;8782;-70
2022/12/29 12:22:34;;;;;;;;;32.20;30.60;;;;;;;;5224349;28;8790;-72
2022/12/29 12:25:34;;;;;;;;;30.80;29.40;;;;;;;;5241589;28;8774;-71
2022/12/29 12:28:18;;;;;;;;;43.40;40.80;;;;;;;;5224314;28;9373;-71
2022/12/29 12:30:53;;;;;;;;;50.20;47.00;;;;;;;;5191270;28;8794;-71
2022/12/29 12:33:28;;;;;;;;;47.40;41.40;;;;;;;;5224476;28;8793;-72
2022/12/29 12:36:03;;;;;;;;;13.40;11.00;;;;;;;;5207592;28;8766;-72
2022/12/29 12:38:53;;;;;;;;;12.00;12.00;;;;;;;;5207251;28;8785;-72
2022/12/29 12:41:24;;;;;;;;;18.40;16.40;;;;;;;;5224251;28;9481;-70
2022/12/29 12:44:13;;;;;;;;;22.40;19.20;;;;;;;;5224293;28;8832;-72
2022/12/29 12:47:18;;;;;;;;;36.60;33.00;;;;;;;;5224874;28;8781;-71
2022/12/29 12:50:05;;;;;;;;;28.80;28.80;;;;;;;;5207731;28;8820;-71
2022/12/29 12:52:57;;;;;;;;;32.40;30.20;;;;;;;;5223879;28;8789;-72
2022/12/29 12:55:46;;;;;;;;;38.60;35.80;;;;;;;;5257553;28;8828;-72
2022/12/29 12:58:39;;;;;;;;;89.00;58.25;;;;;;;;5229703;28;8782;-70
2022/12/29 13:01:38;;;;;;;;;14.60;10.40;;;;;;;;5212112;28;8789;-72
2022/12/29 13:04:26;;;;;;;;;26.00;25.20;;;;;;;;5244393;28;8825;-71
2022/12/29 13:07:09;;;;;;;;;20.60;19.00;;;;;;;;5227808;28;9534;-71
2022/12/29 13:09:51;;;;;;;;;16.20;15.60;;;;;;;;5244493;28;9587;-71
2022/12/29 13:12:51;;;;;;;;;17.20;16.80;;;;;;;;5228776;28;8837;-72
2022/12/29 13:15:29;;;;;;;;;13.00;13.00;;;;;;;;5227867;28;8813;-72
2022/12/29 13:18:18;;;;;;;;;8.80;8.80;;;;;;;;5228275;28;8849;-71
2022/12/29 13:21:16;;;;;;;;;16.60;16.60;;;;;;;;5215030;28;8789;-71
2022/12/29 13:23:50;;;;;;;;;18.20;18.20;;;;;;;;5213178;28;8829;-71
2022/12/29 13:26:39;;;;;;;;;13.60;13.60;;;;;;;;5211043;28;8854;-70
2022/12/29 13:29:10;;;;;;;;;13.20;12.60;;;;;;;;5226996;28;8786;-70
2022/12/29 13:31:42;;;;;;;;;12.60;12.60;;;;;;;;5227628;28;8817;-71
2022/12/29 13:34:29;;;;;;;;;10.00;10.00;;;;;;;;5194346;28;9484;-70
2022/12/29 13:37:02;;;;;;;;;12.20;12.20;;;;;;;;5227667;28;8782;-70
2022/12/29 13:39:49;;;;;;;;;16.80;16.80;;;;;;;;5227198;28;8875;-70
2022/12/29 13:42:21;;;;;;;;;16.20;16.00;;;;;;;;5226587;28;8833;-72
2022/12/29 13:45:06;;;;;;;;;22.40;21.20;;;;;;;;5244167;28;8826;-71
2022/12/29 13:47:42;;;;;;;;;20.60;20.60;;;;;;;;5193435;28;8790;-71
2022/12/29 13:50:21;;;;;;;;;14.80;14.20;;;;;;;;5243490;28;8921;-72
2022/12/29 13:53:02;;;;;;;;;15.40;15.40;;;;;;;;5227980;28;8806;-72
2022/12/29 13:55:33;;;;;;;;;15.60;15.60;;;;;;;;5210313;28;8778;-73
2022/12/29 13:58:10;;;;;;;;;25.00;21.00;;;;;;;;5226302;28;8805;-72
2022/12/29 14:00:56;;;;;;;;;7.20;6.20;;;;;;;;5210510;28;12174;-72
2022/12/29 14:03:30;;;;;;;;;96.00;73.00;;;;;;;;5226552;28;8820;-72
2022/12/29 14:06:14;;;;;;;;;46.20;43.80;;;;;;;;5226967;28;8778;-72
2022/12/29 14:08:46;;;;;;;;;42.00;37.80;;;;;;;;5225087;28;8792;-72
2022/12/29 14:11:18;;;;;;;;;24.00;22.80;;;;;;;;5242869;28;8804;-71
2022/12/29 14:13:49;;;;;;;;;14.80;14.80;;;;;;;;5225977;28;8828;-72
2022/12/29 14:16:28;;;;;;;;;14.80;14.60;;;;;;;;5226318;28;8789;-72
2022/12/29 14:19:11;;;;;;;;;22.40;22.40;;;;;;;;5226601;28;8793;-72
2022/12/29 14:30:49;;;;;;;;;25.00;24.00;;;;;;;;5227279;28;8718;-71
2022/12/29 14:33:21;;;;;;;;;23.60;21.80;;;;;;;;5209929;28;8773;-69
2022/12/29 14:35:53;;;;;;;;;15.40;14.00;;;;;;;;5225624;28;8785;-71
2022/12/29 14:38:25;;;;;;;;;19.80;18.80;;;;;;;;5193000;28;8782;-71
2022/12/29 14:41:16;;;;;;;;;17.20;17.20;;;;;;;;5225346;28;8781;-72
2022/12/29 14:43:55;;;;;;;;;22.40;20.20;;;;;;;;5242492;28;8806;-70
2022/12/29 14:46:40;;;;;;;;;20.60;19.60;;;;;;;;5225309;28;8813;-71
2022/12/29 14:49:17;;;;;;;;;19.80;18.80;;;;;;;;5241657;28;8790;-68
2022/12/29 14:51:51;;;;;;;;;6.20;6.20;;;;;;;;5208778;28;8883;-68
2022/12/29 14:54:31;;;;;;;;;20.20;20.20;;;;;;;;5225746;28;8782;-71
2022/12/29 14:57:04;;;;;;;;;13.80;13.20;;;;;;;;5208619;28;8794;-71
2022/12/29 14:59:36;;;;;;;;;17.60;12.00;;;;;;;;5224901;28;8807;-71
2022/12/29 15:02:39;;;;;;;;;;;;;;;;;;;;;
2022/12/29 15:05:35;;;;;;;;;16.00;15.80;;;;;;;;5226880;28;8782;-70
2022/12/29 15:08:07;;;;;;;;;21.00;18.00;;;;;;;;5225218;28;8789;-70
2022/12/29 15:10:48;;;;;;;;;12.00;12.00;;;;;;;;5241825;28;8782;-71
2022/12/29 15:13:33;;;;;;;;;22.00;21.40;;;;;;;;5225276;28;8821;-72
2022/12/29 15:16:04;;;;;;;;;14.20;14.20;;;;;;;;5226698;28;8900;-71
2022/12/29 15:18:39;;;;;;;;;12.80;12.80;;;;;;;;5207588;28;8866;-70
2022/12/29 15:21:13;;;;;;;;;21.40;20.80;;;;;;;;5241775;28;9014;-70
2022/12/29 15:23:45;;;;;;;;;11.40;11.40;;;;;;;;5225438;28;8848;-71
2022/12/29 15:26:21;;;;;;;;;17.60;17.20;;;;;;;;5208227;28;9488;-71
2022/12/29 15:33:18;;;;;;;;;19.00;18.20;;;;;;;;5225853;28;8832;-72
2022/12/29 15:35:51;;;;;;;;;17.20;15.60;;;;;;;;5241015;28;8879;-72
2022/12/29 15:38:27;;;;;;;;;14.20;14.20;;;;;;;;5258156;28;8871;-72
2022/12/29 15:41:00;;;;;;;;;12.00;12.00;;;;;;;;5208851;28;9497;-72
2022/12/29 15:43:43;;;;;;;;;15.00;14.20;;;;;;;;5225500;28;8848;-73
2022/12/29 15:46:14;;;;;;;;;13.40;13.40;;;;;;;;5208578;28;8801;-72
2022/12/29 15:48:45;;;;;;;;;15.00;14.20;;;;;;;;5225548;28;9498;-71
2022/12/29 15:51:16;;;;;;;;;13.80;13.80;;;;;;;;5223875;28;8786;-71
2022/12/29 15:53:49;;;;;;;;;15.75;14.00;;;;;;;;5224923;28;8851;-72
2022/12/29 15:56:23;;;;;;;;;9.60;9.60;;;;;;;;5225237;28;8777;-69
2022/12/29 15:58:54;;;;;;;;;15.20;15.20;;;;;;;;5224619;28;8825;-70
2022/12/29 16:05:08;;;;;;;;;7.00;7.00;;;;;;;;5220216;28;8784;-70
2022/12/29 16:12:20;;;;;;;;;22.40;22.00;;;;;;;;5204881;28;8804;-71
2022/12/29 16:14:54;;;;;;;;;17.60;17.60;;;;;;;;5203838;28;8780;-71
2022/12/29 16:17:27;;;;;;;;;14.80;14.80;;;;;;;;5203613;28;8799;-71
2022/12/29 16:20:03;;;;;;;;;17.00;17.00;;;;;;;;5203679;28;8780;-72
2022/12/29 16:22:43;;;;;;;;;26.40;25.00;;;;;;;;5204503;28;8981;-74
2022/12/29 16:30:09;;;;;;;;;11.60;10.40;;;;;;;;5223759;28;8779;-72
2022/12/29 16:32:45;;;;;;;;;76.00;61.60;;;;;;;;5227633;28;8799;-72
2022/12/29 16:35:39;;;;;;;;;15.00;15.00;;;;;;;;5211166;28;8779;-74
2022/12/29 16:38:14;;;;;;;;;9.60;9.60;;;;;;;;5199438;28;8857;-73
2022/12/29 16:40:58;;;;;;;;;16.20;15.40;;;;;;;;5197455;28;8779;-74
2022/12/29 16:43:32;;;;;;;;;56.40;47.20;;;;;;;;5194925;28;8834;-73
2022/12/29 16:46:25;;;;;;;;;24.00;23.20;;;;;;;;5210604;28;8775;-72
2022/12/29 16:48:56;;;;;;;;;9.80;9.60;;;;;;;;5193996;28;8775;-73
2022/12/29 16:51:31;;;;;;;;;13.00;13.00;;;;;;;;5226832;28;8832;-75
2022/12/29 16:54:26;;;;;;;;;17.20;16.80;;;;;;;;5197054;28;8759;-73
2022/12/29 16:56:58;;;;;;;;;17.20;17.20;;;;;;;;5194864;28;8812;-73
2022/12/29 16:59:32;;;;;;;;;11.00;10.00;;;;;;;;5224535;28;8869;-74
2022/12/29 17:02:24;;;;;;;;;16.80;16.00;;;;;;;;5207361;28;8796;-73
2022/12/29 17:04:55;;;;;;;;;11.80;11.80;;;;;;;;5223491;28;8804;-73
2022/12/29 17:07:28;;;;;;;;;14.20;14.20;;;;;;;;5224227;28;8808;-74
2022/12/29 17:10:03;;;;;;;;;20.40;19.00;;;;;;;;5214080;28;8773;-73
2022/12/29 17:12:34;;;;;;;;;20.40;19.00;;;;;;;;5232405;28;8820;-74
2022/12/29 17:15:12;;;;;;;;;22.00;22.00;;;;;;;;5217637;28;8792;-73
2022/12/29 17:18:02;;;;;;;;;22.60;21.20;;;;;;;;5208034;28;8838;-73
2022/12/29 17:20:52;;;;;;;;;12.20;12.20;;;;;;;;5207439;28;8764;-73
2022/12/29 17:23:23;;;;;;;;;15.00;13.00;;;;;;;;5223744;28;8962;-74
2022/12/29 17:25:54;;;;;;;;;14.20;14.20;;;;;;;;5207068;28;8919;-73
2022/12/29 17:28:27;;;;;;;;;21.75;21.50;;;;;;;;5207613;28;8899;-73
2022/12/29 17:31:04;;;;;;;;;14.20;14.20;;;;;;;;5206785;28;8781;-74
2022/12/29 17:33:38;;;;;;;;;18.60;18.40;;;;;;;;5223004;28;9542;-74
2022/12/29 17:36:10;;;;;;;;;13.40;13.20;;;;;;;;5206377;28;9488;-74
2022/12/29 17:38:41;;;;;;;;;12.40;12.40;;;;;;;;5206376;28;8791;-74
2022/12/29 17:41:13;;;;;;;;;17.00;17.00;;;;;;;;5206651;28;8776;-75
2022/12/29 17:43:44;;;;;;;;;15.80;14.20;;;;;;;;5206339;28;10948;-75